sensor_id;sensor_type;location;lat;lon;timestamp;P1;durP1;ratioP1;P2;durP2;ratioP2
20324;SDS011;10320;49.482;11.256;2023-08-30T00:00:18;4.37;;;3.93;;
20324;SDS011;10320;49.482;11.256;2023-08-30T00:02:46;4.53;;;4.00;;
20324;SDS011;10320;49.482;11.256;2023-08-30T00:05:12;5.37;;;4.00;;
20324;SDS011;10320;49.482;11.256;2023-08-30T00:07:39;4.83;;;4.00;;
20324;SDS011;10320;49.482;11.256;2023-08-30T00:10:09;4.90;;;4.37;;
20324;SDS011;10320;49.482;11.256;2023-08-30T00:12:35;4.70;;;4.30;;
20324;SDS011;10320;49.482;11.256;2023-08-30T00:15:01;5.47;;;4.03;;
20324;SDS011;10320;49.482;11.256;2023-08-30T00:17:27;6.40;;;4.53;;
20324;SDS011;10320;49.482;11.256;2023-08-30T00:19:53;4.87;;;4.23;;
20324;SDS011;10320;49.482;11.256;2023-08-30T00:22:21;6.77;;;4.50;;
20324;SDS011;10320;49.482;11.256;2023-08-30T00:24:47;5.60;;;4.53;;
20324;SDS011;10320;49.482;11.256;2023-08-30T00:27:13;5.77;;;4.90;;
20324;SDS011;10320;49.482;11.256;2023-08-30T00:29:39;5.63;;;4.73;;
20324;SDS011;10320;49.482;11.256;2023-08-30T00:32:05;6.33;;;5.23;;
20324;SDS011;10320;49.482;11.256;2023-08-30T00:34:31;5.93;;;5.07;;
20324;SDS011;10320;49.482;11.256;2023-08-30T00:36:57;8.37;;;5.63;;
20324;SDS011;10320;49.482;11.256;2023-08-30T00:39:23;6.30;;;5.50;;
20324;SDS011;10320;49.482;11.256;2023-08-30T00:41:49;5.93;;;5.40;;
20324;SDS011;10320;49.482;11.256;2023-08-30T00:44:15;5.80;;;5.30;;
20324;SDS011;10320;49.482;11.256;2023-08-30T00:46:41;5.83;;;5.23;;
20324;SDS011;10320;49.482;11.256;2023-08-30T00:49:07;6.37;;;5.30;;
20324;SDS011;10320;49.482;11.256;2023-08-30T00:51:33;6.57;;;4.83;;
20324;SDS011;10320;49.482;11.256;2023-08-30T00:53:59;6.40;;;5.03;;
20324;SDS011;10320;49.482;11.256;2023-08-30T00:56:29;6.80;;;5.30;;
20324;SDS011;10320;49.482;11.256;2023-08-30T00:58:55;6.93;;;5.10;;
20324;SDS011;10320;49.482;11.256;2023-08-30T01:01:21;6.43;;;5.33;;
20324;SDS011;10320;49.482;11.256;2023-08-30T01:03:48;6.53;;;5.00;;
20324;SDS011;10320;49.482;11.256;2023-08-30T01:06:14;6.27;;;5.70;;
20324;SDS011;10320;49.482;11.256;2023-08-30T01:08:40;6.07;;;5.53;;
20324;SDS011;10320;49.482;11.256;2023-08-30T01:11:15;7.07;;;5.80;;
20324;SDS011;10320;49.482;11.256;2023-08-30T01:13:47;6.23;;;5.63;;
20324;SDS011;10320;49.482;11.256;2023-08-30T01:16:15;6.73;;;6.17;;
20324;SDS011;10320;49.482;11.256;2023-08-30T01:18:45;6.70;;;5.97;;
20324;SDS011;10320;49.482;11.256;2023-08-30T01:21:12;6.23;;;5.63;;
20324;SDS011;10320;49.482;11.256;2023-08-30T01:23:49;8.63;;;5.87;;
20324;SDS011;10320;49.482;11.256;2023-08-30T01:26:20;8.77;;;6.03;;
20324;SDS011;10320;49.482;11.256;2023-08-30T01:28:51;6.70;;;5.80;;
20324;SDS011;10320;49.482;11.256;2023-08-30T01:31:17;6.60;;;6.10;;
20324;SDS011;10320;49.482;11.256;2023-08-30T01:33:44;7.13;;;6.50;;
20324;SDS011;10320;49.482;11.256;2023-08-30T01:36:11;5.87;;;5.40;;
20324;SDS011;10320;49.482;11.256;2023-08-30T01:38:37;6.37;;;5.87;;
20324;SDS011;10320;49.482;11.256;2023-08-30T01:41:03;6.20;;;5.60;;
20324;SDS011;10320;49.482;11.256;2023-08-30T01:43:30;7.50;;;6.10;;
20324;SDS011;10320;49.482;11.256;2023-08-30T01:45:57;6.33;;;5.73;;
20324;SDS011;10320;49.482;11.256;2023-08-30T01:48:25;6.80;;;6.20;;
20324;SDS011;10320;49.482;11.256;2023-08-30T01:50:51;6.57;;;5.93;;
20324;SDS011;10320;49.482;11.256;2023-08-30T01:53:19;5.23;;;4.80;;
20324;SDS011;10320;49.482;11.256;2023-08-30T01:55:46;6.63;;;5.53;;
20324;SDS011;10320;49.482;11.256;2023-08-30T01:58:12;6.77;;;5.00;;
20324;SDS011;10320;49.482;11.256;2023-08-30T02:00:38;5.60;;;5.10;;
20324;SDS011;10320;49.482;11.256;2023-08-30T02:03:08;5.67;;;5.17;;
20324;SDS011;10320;49.482;11.256;2023-08-30T02:05:35;7.43;;;4.30;;
20324;SDS011;10320;49.482;11.256;2023-08-30T02:10:31;5.70;;;5.07;;
20324;SDS011;10320;49.482;11.256;2023-08-30T02:12:57;6.73;;;5.00;;
20324;SDS011;10320;49.482;11.256;2023-08-30T02:15:24;5.80;;;4.13;;
20324;SDS011;10320;49.482;11.256;2023-08-30T02:17:51;5.30;;;4.77;;
20324;SDS011;10320;49.482;11.256;2023-08-30T02:20:17;5.33;;;4.83;;
20324;SDS011;10320;49.482;11.256;2023-08-30T02:22:43;6.10;;;5.60;;
20324;SDS011;10320;49.482;11.256;2023-08-30T02:25:09;6.33;;;5.73;;
20324;SDS011;10320;49.482;11.256;2023-08-30T02:27:35;5.60;;;5.17;;
20324;SDS011;10320;49.482;11.256;2023-08-30T02:30:02;5.10;;;4.60;;
20324;SDS011;10320;49.482;11.256;2023-08-30T02:32:28;6.43;;;4.90;;
20324;SDS011;10320;49.482;11.256;2023-08-30T02:34:55;5.60;;;4.77;;
20324;SDS011;10320;49.482;11.256;2023-08-30T02:37:22;5.33;;;4.77;;
20324;SDS011;10320;49.482;11.256;2023-08-30T02:39:48;6.27;;;5.20;;
20324;SDS011;10320;49.482;11.256;2023-08-30T02:42:14;7.33;;;4.40;;
20324;SDS011;10320;49.482;11.256;2023-08-30T02:44:40;5.27;;;4.30;;
20324;SDS011;10320;49.482;11.256;2023-08-30T02:47:06;6.03;;;4.20;;
20324;SDS011;10320;49.482;11.256;2023-08-30T02:49:32;4.53;;;4.13;;
20324;SDS011;10320;49.482;11.256;2023-08-30T02:51:58;4.53;;;4.23;;
20324;SDS011;10320;49.482;11.256;2023-08-30T02:54:24;6.07;;;4.43;;
20324;SDS011;10320;49.482;11.256;2023-08-30T02:56:50;5.37;;;4.37;;
20324;SDS011;10320;49.482;11.256;2023-08-30T02:59:16;5.43;;;4.60;;
20324;SDS011;10320;49.482;11.256;2023-08-30T03:01:42;5.13;;;4.63;;
20324;SDS011;10320;49.482;11.256;2023-08-30T03:04:08;5.27;;;4.87;;
20324;SDS011;10320;49.482;11.256;2023-08-30T03:06:35;6.03;;;5.33;;
20324;SDS011;10320;49.482;11.256;2023-08-30T03:09:01;5.53;;;5.03;;
20324;SDS011;10320;49.482;11.256;2023-08-30T03:11:28;6.43;;;5.50;;
20324;SDS011;10320;49.482;11.256;2023-08-30T03:13:54;6.87;;;5.73;;
20324;SDS011;10320;49.482;11.256;2023-08-30T03:16:20;5.90;;;5.23;;
20324;SDS011;10320;49.482;11.256;2023-08-30T03:18:46;5.67;;;5.13;;
20324;SDS011;10320;49.482;11.256;2023-08-30T03:21:13;6.70;;;6.00;;
20324;SDS011;10320;49.482;11.256;2023-08-30T03:23:39;5.67;;;5.10;;
20324;SDS011;10320;49.482;11.256;2023-08-30T03:26:09;5.87;;;5.37;;
20324;SDS011;10320;49.482;11.256;2023-08-30T03:28:35;6.93;;;5.80;;
20324;SDS011;10320;49.482;11.256;2023-08-30T03:31:01;6.33;;;5.50;;
20324;SDS011;10320;49.482;11.256;2023-08-30T03:33:27;7.23;;;6.20;;
20324;SDS011;10320;49.482;11.256;2023-08-30T03:35:53;7.13;;;6.50;;
20324;SDS011;10320;49.482;11.256;2023-08-30T03:38:19;7.87;;;7.03;;
20324;SDS011;10320;49.482;11.256;2023-08-30T03:40:45;8.50;;;7.70;;
20324;SDS011;10320;49.482;11.256;2023-08-30T03:43:11;12.37;;;8.60;;
20324;SDS011;10320;49.482;11.256;2023-08-30T03:45:37;9.10;;;7.80;;
20324;SDS011;10320;49.482;11.256;2023-08-30T03:48:03;9.57;;;8.57;;
20324;SDS011;10320;49.482;11.256;2023-08-30T03:50:29;10.73;;;9.10;;
20324;SDS011;10320;49.482;11.256;2023-08-30T03:52:55;10.80;;;9.13;;
20324;SDS011;10320;49.482;11.256;2023-08-30T03:55:21;9.87;;;8.87;;
20324;SDS011;10320;49.482;11.256;2023-08-30T03:57:48;10.80;;;9.70;;
20324;SDS011;10320;49.482;11.256;2023-08-30T04:00:14;9.90;;;9.07;;
20324;SDS011;10320;49.482;11.256;2023-08-30T04:02:40;10.70;;;9.70;;
20324;SDS011;10320;49.482;11.256;2023-08-30T04:05:06;9.93;;;9.03;;
20324;SDS011;10320;49.482;11.256;2023-08-30T04:07:35;10.03;;;8.97;;
20324;SDS011;10320;49.482;11.256;2023-08-30T04:10:01;9.03;;;8.13;;
20324;SDS011;10320;49.482;11.256;2023-08-30T04:12:31;15.77;;;8.93;;
20324;SDS011;10320;49.482;11.256;2023-08-30T04:14:57;10.30;;;9.17;;
20324;SDS011;10320;49.482;11.256;2023-08-30T04:17:23;11.77;;;10.53;;
20324;SDS011;10320;49.482;11.256;2023-08-30T04:19:52;11.97;;;10.77;;
20324;SDS011;10320;49.482;11.256;2023-08-30T04:22:18;10.47;;;9.33;;
20324;SDS011;10320;49.482;11.256;2023-08-30T04:24:45;10.17;;;9.17;;
20324;SDS011;10320;49.482;11.256;2023-08-30T04:27:11;11.07;;;9.93;;
20324;SDS011;10320;49.482;11.256;2023-08-30T04:29:37;10.87;;;9.73;;
20324;SDS011;10320;49.482;11.256;2023-08-30T04:32:03;11.40;;;9.57;;
20324;SDS011;10320;49.482;11.256;2023-08-30T04:34:30;10.80;;;9.50;;
20324;SDS011;10320;49.482;11.256;2023-08-30T04:36:56;10.67;;;9.47;;
20324;SDS011;10320;49.482;11.256;2023-08-30T04:39:22;10.63;;;9.60;;
20324;SDS011;10320;49.482;11.256;2023-08-30T04:41:49;10.93;;;9.83;;
20324;SDS011;10320;49.482;11.256;2023-08-30T04:44:15;11.10;;;9.77;;
20324;SDS011;10320;49.482;11.256;2023-08-30T04:46:42;11.10;;;9.80;;
20324;SDS011;10320;49.482;11.256;2023-08-30T04:49:08;11.77;;;9.90;;
20324;SDS011;10320;49.482;11.256;2023-08-30T04:51:34;11.37;;;9.97;;
20324;SDS011;10320;49.482;11.256;2023-08-30T04:54:00;11.10;;;9.80;;
20324;SDS011;10320;49.482;11.256;2023-08-30T04:56:26;10.87;;;9.87;;
20324;SDS011;10320;49.482;11.256;2023-08-30T04:58:52;10.93;;;9.87;;
20324;SDS011;10320;49.482;11.256;2023-08-30T05:01:18;12.33;;;10.80;;
20324;SDS011;10320;49.482;11.256;2023-08-30T05:03:44;10.67;;;9.67;;
20324;SDS011;10320;49.482;11.256;2023-08-30T05:06:10;10.57;;;9.57;;
20324;SDS011;10320;49.482;11.256;2023-08-30T05:08:41;11.23;;;9.80;;
20324;SDS011;10320;49.482;11.256;2023-08-30T05:11:06;10.00;;;9.00;;
20324;SDS011;10320;49.482;11.256;2023-08-30T05:13:33;10.23;;;9.23;;
20324;SDS011;10320;49.482;11.256;2023-08-30T05:15:59;9.73;;;8.83;;
20324;SDS011;10320;49.482;11.256;2023-08-30T05:18:25;9.23;;;8.53;;
20324;SDS011;10320;49.482;11.256;2023-08-30T05:20:51;11.60;;;9.03;;
20324;SDS011;10320;49.482;11.256;2023-08-30T05:23:17;10.00;;;9.10;;
20324;SDS011;10320;49.482;11.256;2023-08-30T05:25:43;10.20;;;9.20;;
20324;SDS011;10320;49.482;11.256;2023-08-30T05:28:09;9.93;;;9.07;;
20324;SDS011;10320;49.482;11.256;2023-08-30T05:30:35;9.73;;;8.83;;
20324;SDS011;10320;49.482;11.256;2023-08-30T05:33:00;9.97;;;9.00;;
20324;SDS011;10320;49.482;11.256;2023-08-30T05:35:27;9.30;;;8.57;;
20324;SDS011;10320;49.482;11.256;2023-08-30T05:37:53;9.63;;;8.77;;
20324;SDS011;10320;49.482;11.256;2023-08-30T05:40:18;9.30;;;8.50;;
20324;SDS011;10320;49.482;11.256;2023-08-30T05:42:44;9.50;;;8.60;;
20324;SDS011;10320;49.482;11.256;2023-08-30T05:45:10;8.53;;;7.83;;
20324;SDS011;10320;49.482;11.256;2023-08-30T05:47:36;9.20;;;8.07;;
20324;SDS011;10320;49.482;11.256;2023-08-30T05:50:01;8.47;;;7.67;;
20324;SDS011;10320;49.482;11.256;2023-08-30T05:52:27;8.30;;;7.60;;
20324;SDS011;10320;49.482;11.256;2023-08-30T05:54:53;8.30;;;7.57;;
20324;SDS011;10320;49.482;11.256;2023-08-30T05:57:18;8.80;;;7.30;;
20324;SDS011;10320;49.482;11.256;2023-08-30T05:59:47;8.30;;;7.60;;
20324;SDS011;10320;49.482;11.256;2023-08-30T06:02:12;9.50;;;8.70;;
20324;SDS011;10320;49.482;11.256;2023-08-30T06:04:38;9.57;;;8.67;;
20324;SDS011;10320;49.482;11.256;2023-08-30T06:07:04;10.20;;;9.30;;
20324;SDS011;10320;49.482;11.256;2023-08-30T06:09:29;9.67;;;8.87;;
20324;SDS011;10320;49.482;11.256;2023-08-30T06:11:55;9.73;;;8.83;;
20324;SDS011;10320;49.482;11.256;2023-08-30T06:14:21;10.73;;;9.73;;
20324;SDS011;10320;49.482;11.256;2023-08-30T06:16:47;9.30;;;8.43;;
20324;SDS011;10320;49.482;11.256;2023-08-30T06:19:13;11.07;;;9.97;;
20324;SDS011;10320;49.482;11.256;2023-08-30T06:21:39;11.27;;;10.23;;
20324;SDS011;10320;49.482;11.256;2023-08-30T06:24:05;13.10;;;11.80;;
20324;SDS011;10320;49.482;11.256;2023-08-30T06:26:30;12.07;;;10.83;;
20324;SDS011;10320;49.482;11.256;2023-08-30T06:28:56;11.73;;;10.57;;
20324;SDS011;10320;49.482;11.256;2023-08-30T06:31:22;10.77;;;9.80;;
20324;SDS011;10320;49.482;11.256;2023-08-30T06:33:47;10.73;;;9.70;;
20324;SDS011;10320;49.482;11.256;2023-08-30T06:36:13;11.50;;;10.37;;
20324;SDS011;10320;49.482;11.256;2023-08-30T06:38:41;11.40;;;10.40;;
20324;SDS011;10320;49.482;11.256;2023-08-30T06:41:07;11.87;;;10.50;;
20324;SDS011;10320;49.482;11.256;2023-08-30T06:43:33;12.93;;;11.63;;
20324;SDS011;10320;49.482;11.256;2023-08-30T06:45:58;15.20;;;13.60;;
20324;SDS011;10320;49.482;11.256;2023-08-30T06:48:24;13.10;;;11.80;;
20324;SDS011;10320;49.482;11.256;2023-08-30T06:50:50;13.70;;;11.93;;
20324;SDS011;10320;49.482;11.256;2023-08-30T06:53:15;12.57;;;11.27;;
20324;SDS011;10320;49.482;11.256;2023-08-30T06:55:41;12.50;;;11.20;;
20324;SDS011;10320;49.482;11.256;2023-08-30T06:58:07;14.07;;;12.70;;
20324;SDS011;10320;49.482;11.256;2023-08-30T07:00:32;15.23;;;13.63;;
20324;SDS011;10320;49.482;11.256;2023-08-30T07:02:58;13.63;;;12.20;;
20324;SDS011;10320;49.482;11.256;2023-08-30T07:05:24;12.67;;;11.47;;
20324;SDS011;10320;49.482;11.256;2023-08-30T07:07:50;13.43;;;12.13;;
20324;SDS011;10320;49.482;11.256;2023-08-30T07:10:15;14.53;;;13.07;;
20324;SDS011;10320;49.482;11.256;2023-08-30T07:12:41;14.43;;;13.00;;
20324;SDS011;10320;49.482;11.256;2023-08-30T07:15:07;14.87;;;13.47;;
20324;SDS011;10320;49.482;11.256;2023-08-30T07:17:33;13.33;;;12.13;;
20324;SDS011;10320;49.482;11.256;2023-08-30T07:19:59;14.23;;;12.77;;
20324;SDS011;10320;49.482;11.256;2023-08-30T07:22:24;15.63;;;14.03;;
20324;SDS011;10320;49.482;11.256;2023-08-30T07:24:50;16.60;;;13.60;;
20324;SDS011;10320;49.482;11.256;2023-08-30T07:27:16;15.40;;;13.83;;
20324;SDS011;10320;49.482;11.256;2023-08-30T07:29:41;15.03;;;13.63;;
20324;SDS011;10320;49.482;11.256;2023-08-30T07:32:08;14.50;;;13.07;;
20324;SDS011;10320;49.482;11.256;2023-08-30T07:34:34;15.90;;;14.40;;
20324;SDS011;10320;49.482;11.256;2023-08-30T07:37:00;16.17;;;14.67;;
20324;SDS011;10320;49.482;11.256;2023-08-30T07:39:26;16.17;;;14.47;;
20324;SDS011;10320;49.482;11.256;2023-08-30T07:41:52;15.43;;;13.93;;
20324;SDS011;10320;49.482;11.256;2023-08-30T07:44:18;14.10;;;12.73;;
20324;SDS011;10320;49.482;11.256;2023-08-30T07:46:45;13.80;;;12.50;;
20324;SDS011;10320;49.482;11.256;2023-08-30T07:49:11;14.27;;;12.97;;
20324;SDS011;10320;49.482;11.256;2023-08-30T07:51:37;13.70;;;12.40;;
20324;SDS011;10320;49.482;11.256;2023-08-30T07:54:02;12.93;;;11.67;;
20324;SDS011;10320;49.482;11.256;2023-08-30T07:56:28;12.80;;;11.60;;
20324;SDS011;10320;49.482;11.256;2023-08-30T07:58:54;12.80;;;11.57;;
20324;SDS011;10320;49.482;11.256;2023-08-30T08:01:20;13.30;;;12.10;;
20324;SDS011;10320;49.482;11.256;2023-08-30T08:03:45;13.23;;;12.03;;
20324;SDS011;10320;49.482;11.256;2023-08-30T08:06:12;13.50;;;12.40;;
20324;SDS011;10320;49.482;11.256;2023-08-30T08:08:37;13.03;;;11.93;;
20324;SDS011;10320;49.482;11.256;2023-08-30T08:11:03;13.00;;;11.83;;
20324;SDS011;10320;49.482;11.256;2023-08-30T08:13:29;13.17;;;11.87;;
20324;SDS011;10320;49.482;11.256;2023-08-30T08:15:57;12.80;;;11.63;;
20324;SDS011;10320;49.482;11.256;2023-08-30T08:18:23;13.80;;;12.50;;
20324;SDS011;10320;49.482;11.256;2023-08-30T08:20:49;14.40;;;13.07;;
20324;SDS011;10320;49.482;11.256;2023-08-30T08:23:15;12.67;;;11.57;;
20324;SDS011;10320;49.482;11.256;2023-08-30T08:25:41;13.80;;;12.70;;
20324;SDS011;10320;49.482;11.256;2023-08-30T08:28:09;13.47;;;12.27;;
20324;SDS011;10320;49.482;11.256;2023-08-30T08:30:35;13.70;;;12.47;;
20324;SDS011;10320;49.482;11.256;2023-08-30T08:33:01;14.63;;;13.43;;
20324;SDS011;10320;49.482;11.256;2023-08-30T08:35:27;14.37;;;13.03;;
20324;SDS011;10320;49.482;11.256;2023-08-30T08:37:53;13.53;;;12.33;;
20324;SDS011;10320;49.482;11.256;2023-08-30T08:40:18;14.60;;;13.47;;
20324;SDS011;10320;49.482;11.256;2023-08-30T08:42:44;14.13;;;13.03;;
20324;SDS011;10320;49.482;11.256;2023-08-30T08:45:12;13.13;;;12.13;;
20324;SDS011;10320;49.482;11.256;2023-08-30T08:47:40;13.47;;;12.27;;
20324;SDS011;10320;49.482;11.256;2023-08-30T08:50:07;13.77;;;12.63;;
20324;SDS011;10320;49.482;11.256;2023-08-30T08:52:34;14.03;;;12.93;;
20324;SDS011;10320;49.482;11.256;2023-08-30T08:54:59;13.68;;;12.48;;
20324;SDS011;10320;49.482;11.256;2023-08-30T08:57:26;13.50;;;12.30;;
20324;SDS011;10320;49.482;11.256;2023-08-30T08:59:55;13.67;;;12.40;;
20324;SDS011;10320;49.482;11.256;2023-08-30T09:02:22;12.37;;;11.40;;
20324;SDS011;10320;49.482;11.256;2023-08-30T09:04:48;12.63;;;11.48;;
20324;SDS011;10320;49.482;11.256;2023-08-30T09:07:14;11.02;;;10.10;;
20324;SDS011;10320;49.482;11.256;2023-08-30T09:09:40;10.73;;;9.73;;
20324;SDS011;10320;49.482;11.256;2023-08-30T09:12:06;11.67;;;10.67;;
20324;SDS011;10320;49.482;11.256;2023-08-30T09:14:31;10.63;;;9.60;;
20324;SDS011;10320;49.482;11.256;2023-08-30T09:17:01;10.85;;;10.05;;
20324;SDS011;10320;49.482;11.256;2023-08-30T09:19:28;10.30;;;9.50;;
20324;SDS011;10320;49.482;11.256;2023-08-30T09:21:55;10.00;;;9.10;;
20324;SDS011;10320;49.482;11.256;2023-08-30T09:24:39;8.30;;;7.63;;
20324;SDS011;10320;49.482;11.256;2023-08-30T09:27:05;8.55;;;7.85;;
20324;SDS011;10320;49.482;11.256;2023-08-30T09:29:31;7.43;;;6.82;;
20324;SDS011;10320;49.482;11.256;2023-08-30T09:31:57;8.15;;;7.50;;
20324;SDS011;10320;49.482;11.256;2023-08-30T09:34:23;7.93;;;7.23;;
20324;SDS011;10320;49.482;11.256;2023-08-30T09:36:50;8.27;;;7.57;;
20324;SDS011;10320;49.482;11.256;2023-08-30T09:39:16;8.70;;;7.97;;
20324;SDS011;10320;49.482;11.256;2023-08-30T09:41:49;8.13;;;7.43;;
20324;SDS011;10320;49.482;11.256;2023-08-30T09:44:19;7.38;;;6.40;;
20324;SDS011;10320;49.482;11.256;2023-08-30T09:46:46;7.18;;;6.47;;
20324;SDS011;10320;49.482;11.256;2023-08-30T09:49:17;7.38;;;6.68;;
20324;SDS011;10320;49.482;11.256;2023-08-30T09:51:44;6.38;;;5.88;;
20324;SDS011;10320;49.482;11.256;2023-08-30T09:54:16;6.38;;;5.80;;
20324;SDS011;10320;49.482;11.256;2023-08-30T09:56:46;6.25;;;5.75;;
20324;SDS011;10320;49.482;11.256;2023-08-30T09:59:13;5.90;;;5.40;;
20324;SDS011;10320;49.482;11.256;2023-08-30T10:01:40;5.60;;;5.10;;
20324;SDS011;10320;49.482;11.256;2023-08-30T10:04:07;4.82;;;4.43;;
20324;SDS011;10320;49.482;11.256;2023-08-30T10:06:39;5.00;;;4.60;;
20324;SDS011;10320;49.482;11.256;2023-08-30T10:09:06;5.55;;;5.15;;
20324;SDS011;10320;49.482;11.256;2023-08-30T10:11:36;5.18;;;4.68;;
20324;SDS011;10320;49.482;11.256;2023-08-30T10:14:06;6.70;;;6.20;;
20324;SDS011;10320;49.482;11.256;2023-08-30T10:16:45;5.20;;;4.80;;
20324;SDS011;10320;49.482;11.256;2023-08-30T10:19:16;7.00;;;5.38;;
20324;SDS011;10320;49.482;11.256;2023-08-30T10:21:44;5.95;;;5.35;;
20324;SDS011;10320;49.482;11.256;2023-08-30T10:24:11;6.15;;;5.65;;
20324;SDS011;10320;49.482;11.256;2023-08-30T10:26:40;6.82;;;6.22;;
20324;SDS011;10320;49.482;11.256;2023-08-30T10:29:09;6.15;;;5.63;;
20324;SDS011;10320;49.482;11.256;2023-08-30T10:31:37;5.70;;;5.20;;
20324;SDS011;10320;49.482;11.256;2023-08-30T10:34:11;6.70;;;6.20;;
20324;SDS011;10320;49.482;11.256;2023-08-30T10:36:42;7.20;;;6.53;;
20324;SDS011;10320;49.482;11.256;2023-08-30T10:39:11;6.03;;;5.43;;
20324;SDS011;10320;49.482;11.256;2023-08-30T10:41:39;7.00;;;6.35;;
20324;SDS011;10320;49.482;11.256;2023-08-30T10:44:22;6.45;;;5.78;;
20324;SDS011;10320;49.482;11.256;2023-08-30T10:46:53;6.53;;;5.93;;
20324;SDS011;10320;49.482;11.256;2023-08-30T10:49:20;6.68;;;6.07;;
20324;SDS011;10320;49.482;11.256;2023-08-30T10:51:56;6.97;;;6.05;;
20324;SDS011;10320;49.482;11.256;2023-08-30T10:54:23;6.55;;;5.93;;
20324;SDS011;10320;49.482;11.256;2023-08-30T10:59:22;7.32;;;6.63;;
20324;SDS011;10320;49.482;11.256;2023-08-30T11:01:49;8.13;;;7.43;;
20324;SDS011;10320;49.482;11.256;2023-08-30T11:04:17;7.22;;;6.57;;
20324;SDS011;10320;49.482;11.256;2023-08-30T11:06:43;7.22;;;6.63;;
20324;SDS011;10320;49.482;11.256;2023-08-30T11:09:12;6.53;;;5.93;;
20324;SDS011;10320;49.482;11.256;2023-08-30T11:11:39;7.45;;;6.75;;
20324;SDS011;10320;49.482;11.256;2023-08-30T11:14:08;7.88;;;7.18;;
20324;SDS011;10320;49.482;11.256;2023-08-30T11:16:35;6.68;;;6.07;;
20324;SDS011;10320;49.482;11.256;2023-08-30T11:19:01;6.93;;;5.75;;
20324;SDS011;10320;49.482;11.256;2023-08-30T11:21:32;7.35;;;6.65;;
20324;SDS011;10320;49.482;11.256;2023-08-30T11:24:05;8.13;;;7.30;;
20324;SDS011;10320;49.482;11.256;2023-08-30T11:26:32;6.38;;;5.88;;
20324;SDS011;10320;49.482;11.256;2023-08-30T11:29:03;6.43;;;5.93;;
20324;SDS011;10320;49.482;11.256;2023-08-30T11:31:29;6.88;;;6.28;;
20324;SDS011;10320;49.482;11.256;2023-08-30T11:33:56;7.53;;;6.93;;
20324;SDS011;10320;49.482;11.256;2023-08-30T11:36:23;7.53;;;6.82;;
20324;SDS011;10320;49.482;11.256;2023-08-30T11:38:51;7.88;;;7.15;;
20324;SDS011;10320;49.482;11.256;2023-08-30T11:41:20;7.00;;;6.40;;
20324;SDS011;10320;49.482;11.256;2023-08-30T11:43:52;7.25;;;6.25;;
20324;SDS011;10320;49.482;11.256;2023-08-30T11:46:19;6.18;;;5.68;;
20324;SDS011;10320;49.482;11.256;2023-08-30T11:48:47;7.82;;;7.05;;
20324;SDS011;10320;49.482;11.256;2023-08-30T11:51:14;6.80;;;6.20;;
20324;SDS011;10320;49.482;11.256;2023-08-30T11:53:41;6.80;;;6.15;;
20324;SDS011;10320;49.482;11.256;2023-08-30T11:56:07;7.18;;;6.47;;
20324;SDS011;10320;49.482;11.256;2023-08-30T11:58:34;6.82;;;6.22;;
20324;SDS011;10320;49.482;11.256;2023-08-30T12:01:00;6.85;;;6.25;;
20324;SDS011;10320;49.482;11.256;2023-08-30T12:03:27;6.13;;;5.60;;
20324;SDS011;10320;49.482;11.256;2023-08-30T12:05:55;7.25;;;6.65;;
20324;SDS011;10320;49.482;11.256;2023-08-30T12:08:25;6.88;;;6.38;;
20324;SDS011;10320;49.482;11.256;2023-08-30T12:10:52;6.65;;;6.13;;
20324;SDS011;10320;49.482;11.256;2023-08-30T12:13:29;6.45;;;5.95;;
20324;SDS011;10320;49.482;11.256;2023-08-30T12:15:56;6.22;;;5.63;;
20324;SDS011;10320;49.482;11.256;2023-08-30T12:18:26;6.32;;;5.70;;
20324;SDS011;10320;49.482;11.256;2023-08-30T12:20:54;6.35;;;5.75;;
20324;SDS011;10320;49.482;11.256;2023-08-30T12:23:25;5.90;;;5.32;;
20324;SDS011;10320;49.482;11.256;2023-08-30T12:28:44;6.35;;;5.75;;
20324;SDS011;10320;49.482;11.256;2023-08-30T12:31:10;6.45;;;5.93;;
20324;SDS011;10320;49.482;11.256;2023-08-30T12:33:36;5.85;;;5.35;;
20324;SDS011;10320;49.482;11.256;2023-08-30T12:36:02;6.50;;;5.93;;
20324;SDS011;10320;49.482;11.256;2023-08-30T12:38:29;6.40;;;5.85;;
20324;SDS011;10320;49.482;11.256;2023-08-30T12:40:55;7.35;;;6.65;;
20324;SDS011;10320;49.482;11.256;2023-08-30T12:43:22;7.57;;;6.75;;
20324;SDS011;10320;49.482;11.256;2023-08-30T12:45:48;8.75;;;7.95;;
20324;SDS011;10320;49.482;11.256;2023-08-30T12:48:15;8.80;;;8.00;;
20324;SDS011;10320;49.482;11.256;2023-08-30T12:50:43;9.70;;;8.68;;
20324;SDS011;10320;49.482;11.256;2023-08-30T12:53:11;8.88;;;8.15;;
20324;SDS011;10320;49.482;11.256;2023-08-30T12:55:37;9.57;;;8.63;;
20324;SDS011;10320;49.482;11.256;2023-08-30T12:58:06;10.75;;;9.82;;
20324;SDS011;10320;49.482;11.256;2023-08-30T13:00:32;10.02;;;9.05;;
20324;SDS011;10320;49.482;11.256;2023-08-30T13:02:58;10.45;;;9.55;;
20324;SDS011;10320;49.482;11.256;2023-08-30T13:05:25;10.85;;;9.80;;
20324;SDS011;10320;49.482;11.256;2023-08-30T13:07:51;9.57;;;8.77;;
20324;SDS011;10320;49.482;11.256;2023-08-30T13:10:16;12.27;;;11.15;;
20324;SDS011;10320;49.482;11.256;2023-08-30T13:12:42;11.15;;;10.00;;
20324;SDS011;10320;49.482;11.256;2023-08-30T13:15:08;12.07;;;10.88;;
20324;SDS011;10320;49.482;11.256;2023-08-30T13:17:34;11.77;;;10.70;;
20324;SDS011;10320;49.482;11.256;2023-08-30T13:20:01;10.95;;;9.85;;
20324;SDS011;10320;49.482;11.256;2023-08-30T13:22:28;10.18;;;9.27;;
20324;SDS011;10320;49.482;11.256;2023-08-30T13:24:53;9.40;;;8.60;;
20324;SDS011;10320;49.482;11.256;2023-08-30T13:27:19;9.38;;;8.57;;
20324;SDS011;10320;49.482;11.256;2023-08-30T13:29:46;8.70;;;7.90;;
20324;SDS011;10320;49.482;11.256;2023-08-30T13:32:12;8.82;;;8.13;;
20324;SDS011;10320;49.482;11.256;2023-08-30T13:34:38;8.70;;;7.90;;
20324;SDS011;10320;49.482;11.256;2023-08-30T13:37:04;8.70;;;7.88;;
20324;SDS011;10320;49.482;11.256;2023-08-30T13:39:30;8.23;;;7.53;;
20324;SDS011;10320;49.482;11.256;2023-08-30T13:41:56;8.82;;;7.95;;
20324;SDS011;10320;49.482;11.256;2023-08-30T13:44:21;8.63;;;7.93;;
20324;SDS011;10320;49.482;11.256;2023-08-30T13:46:47;8.77;;;8.07;;
20324;SDS011;10320;49.482;11.256;2023-08-30T13:49:13;8.27;;;7.57;;
20324;SDS011;10320;49.482;11.256;2023-08-30T13:51:40;8.68;;;7.32;;
20324;SDS011;10320;49.482;11.256;2023-08-30T13:54:06;8.52;;;7.50;;
20324;SDS011;10320;49.482;11.256;2023-08-30T13:56:32;8.27;;;7.50;;
20324;SDS011;10320;49.482;11.256;2023-08-30T13:58:57;7.90;;;7.10;;
20324;SDS011;10320;49.482;11.256;2023-08-30T14:01:23;6.90;;;6.25;;
20324;SDS011;10320;49.482;11.256;2023-08-30T14:03:49;7.20;;;6.55;;
20324;SDS011;10320;49.482;11.256;2023-08-30T14:06:14;6.65;;;6.05;;
20324;SDS011;10320;49.482;11.256;2023-08-30T14:08:40;6.63;;;6.03;;
20324;SDS011;10320;49.482;11.256;2023-08-30T14:11:07;6.03;;;5.43;;
20324;SDS011;10320;49.482;11.256;2023-08-30T14:13:33;6.07;;;5.50;;
20324;SDS011;10320;49.482;11.256;2023-08-30T14:15:59;5.30;;;4.90;;
20324;SDS011;10320;49.482;11.256;2023-08-30T14:18:25;5.60;;;5.15;;
20324;SDS011;10320;49.482;11.256;2023-08-30T14:20:55;5.10;;;4.70;;
20324;SDS011;10320;49.482;11.256;2023-08-30T14:23:22;4.50;;;4.20;;
20324;SDS011;10320;49.482;11.256;2023-08-30T14:25:54;4.60;;;4.22;;
20324;SDS011;10320;49.482;11.256;2023-08-30T14:28:23;4.65;;;4.25;;
20324;SDS011;10320;49.482;11.256;2023-08-30T14:30:49;4.55;;;4.15;;
20324;SDS011;10320;49.482;11.256;2023-08-30T14:33:15;4.63;;;4.22;;